sensor_id;sensor_type;location;lat;lon;timestamp;P1;durP1;ratioP1;P2;durP2;ratioP2
84713;SDS011;74938;42.658;23.248;2024-03-08T00:00:22;10.40;;;4.65;;
84713;SDS011;74938;42.658;23.248;2024-03-08T00:02:48;8.50;;;4.05;;
84713;SDS011;74938;42.658;23.248;2024-03-08T00:05:15;11.50;;;5.03;;
84713;SDS011;74938;42.658;23.248;2024-03-08T00:07:41;14.73;;;6.53;;
84713;SDS011;74938;42.658;23.248;2024-03-08T00:10:08;14.48;;;5.38;;
84713;SDS011;74938;42.658;23.248;2024-03-08T00:12:39;5.25;;;2.40;;
84713;SDS011;74938;42.658;23.248;2024-03-08T00:15:11;8.15;;;4.18;;
84713;SDS011;74938;42.658;23.248;2024-03-08T00:17:39;7.28;;;3.47;;
84713;SDS011;74938;42.658;23.248;2024-03-08T00:20:05;10.45;;;5.07;;
84713;SDS011;74938;42.658;23.248;2024-03-08T00:22:36;5.68;;;2.83;;
84713;SDS011;74938;42.658;23.248;2024-03-08T00:25:03;5.25;;;2.47;;
84713;SDS011;74938;42.658;23.248;2024-03-08T00:27:29;6.53;;;2.85;;
84713;SDS011;74938;42.658;23.248;2024-03-08T00:29:58;7.10;;;3.10;;
84713;SDS011;74938;42.658;23.248;2024-03-08T00:32:24;5.90;;;2.97;;
84713;SDS011;74938;42.658;23.248;2024-03-08T00:34:50;11.50;;;5.55;;
84713;SDS011;74938;42.658;23.248;2024-03-08T00:37:17;10.85;;;5.00;;
84713;SDS011;74938;42.658;23.248;2024-03-08T00:39:42;9.20;;;4.15;;
84713;SDS011;74938;42.658;23.248;2024-03-08T00:42:08;7.90;;;3.45;;
84713;SDS011;74938;42.658;23.248;2024-03-08T00:44:33;7.28;;;2.72;;
84713;SDS011;74938;42.658;23.248;2024-03-08T00:46:58;10.95;;;4.65;;
84713;SDS011;74938;42.658;23.248;2024-03-08T00:49:24;12.05;;;5.78;;
84713;SDS011;74938;42.658;23.248;2024-03-08T00:51:50;9.05;;;4.47;;
84713;SDS011;74938;42.658;23.248;2024-03-08T00:54:15;8.77;;;3.42;;
84713;SDS011;74938;42.658;23.248;2024-03-08T00:56:41;9.07;;;3.50;;
84713;SDS011;74938;42.658;23.248;2024-03-08T00:59:07;15.88;;;6.93;;
84713;SDS011;74938;42.658;23.248;2024-03-08T01:01:32;12.90;;;6.03;;
84713;SDS011;74938;42.658;23.248;2024-03-08T01:03:58;10.82;;;4.10;;
84713;SDS011;74938;42.658;23.248;2024-03-08T01:06:23;14.02;;;6.95;;
84713;SDS011;74938;42.658;23.248;2024-03-08T01:08:49;10.40;;;4.78;;
84713;SDS011;74938;42.658;23.248;2024-03-08T01:11:16;8.05;;;3.88;;
84713;SDS011;74938;42.658;23.248;2024-03-08T01:13:43;9.75;;;4.72;;
84713;SDS011;74938;42.658;23.248;2024-03-08T01:16:08;9.45;;;4.70;;
84713;SDS011;74938;42.658;23.248;2024-03-08T01:18:33;11.98;;;4.72;;
84713;SDS011;74938;42.658;23.248;2024-03-08T01:20:59;14.65;;;6.25;;
84713;SDS011;74938;42.658;23.248;2024-03-08T01:23:24;9.43;;;3.60;;
84713;SDS011;74938;42.658;23.248;2024-03-08T01:25:50;6.65;;;3.30;;
84713;SDS011;74938;42.658;23.248;2024-03-08T01:28:21;5.88;;;2.88;;
84713;SDS011;74938;42.658;23.248;2024-03-08T01:30:50;5.75;;;3.22;;
84713;SDS011;74938;42.658;23.248;2024-03-08T01:33:20;6.00;;;2.60;;
84713;SDS011;74938;42.658;23.248;2024-03-08T01:35:50;8.30;;;2.97;;
84713;SDS011;74938;42.658;23.248;2024-03-08T01:38:16;5.47;;;3.08;;
84713;SDS011;74938;42.658;23.248;2024-03-08T01:40:41;4.72;;;2.60;;
84713;SDS011;74938;42.658;23.248;2024-03-08T01:43:17;5.80;;;2.42;;
84713;SDS011;74938;42.658;23.248;2024-03-08T01:45:44;9.35;;;4.22;;
84713;SDS011;74938;42.658;23.248;2024-03-08T01:48:09;5.82;;;2.92;;
84713;SDS011;74938;42.658;23.248;2024-03-08T01:50:35;8.45;;;3.28;;
84713;SDS011;74938;42.658;23.248;2024-03-08T01:53:01;4.82;;;2.67;;
84713;SDS011;74938;42.658;23.248;2024-03-08T01:55:27;7.90;;;3.97;;
84713;SDS011;74938;42.658;23.248;2024-03-08T01:57:52;6.35;;;3.10;;
84713;SDS011;74938;42.658;23.248;2024-03-08T02:00:18;4.32;;;2.17;;
84713;SDS011;74938;42.658;23.248;2024-03-08T02:02:45;8.52;;;3.45;;
84713;SDS011;74938;42.658;23.248;2024-03-08T02:05:12;6.95;;;3.22;;
84713;SDS011;74938;42.658;23.248;2024-03-08T02:07:40;6.50;;;3.33;;
84713;SDS011;74938;42.658;23.248;2024-03-08T02:10:09;6.97;;;3.17;;
84713;SDS011;74938;42.658;23.248;2024-03-08T02:12:35;7.82;;;3.83;;
84713;SDS011;74938;42.658;23.248;2024-03-08T02:15:00;9.43;;;4.15;;
84713;SDS011;74938;42.658;23.248;2024-03-08T02:17:26;11.23;;;5.15;;
84713;SDS011;74938;42.658;23.248;2024-03-08T02:19:51;6.78;;;3.20;;
84713;SDS011;74938;42.658;23.248;2024-03-08T02:22:17;6.32;;;2.90;;
84713;SDS011;74938;42.658;23.248;2024-03-08T02:24:42;5.13;;;2.65;;
84713;SDS011;74938;42.658;23.248;2024-03-08T02:27:08;7.60;;;3.38;;
84713;SDS011;74938;42.658;23.248;2024-03-08T02:29:36;5.93;;;2.38;;
84713;SDS011;74938;42.658;23.248;2024-03-08T02:32:02;5.68;;;2.40;;
84713;SDS011;74938;42.658;23.248;2024-03-08T02:34:28;5.80;;;2.92;;
84713;SDS011;74938;42.658;23.248;2024-03-08T02:36:54;5.50;;;2.47;;
84713;SDS011;74938;42.658;23.248;2024-03-08T02:39:21;4.60;;;2.50;;
84713;SDS011;74938;42.658;23.248;2024-03-08T02:41:47;5.47;;;3.17;;
84713;SDS011;74938;42.658;23.248;2024-03-08T02:44:12;6.47;;;2.80;;
84713;SDS011;74938;42.658;23.248;2024-03-08T02:46:38;5.53;;;3.10;;
84713;SDS011;74938;42.658;23.248;2024-03-08T02:49:03;7.30;;;3.55;;
84713;SDS011;74938;42.658;23.248;2024-03-08T02:51:29;7.07;;;3.53;;
84713;SDS011;74938;42.658;23.248;2024-03-08T02:53:55;6.57;;;3.33;;
84713;SDS011;74938;42.658;23.248;2024-03-08T02:56:21;7.20;;;3.67;;
84713;SDS011;74938;42.658;23.248;2024-03-08T02:58:46;7.97;;;3.40;;
84713;SDS011;74938;42.658;23.248;2024-03-08T03:01:13;7.05;;;3.80;;
84713;SDS011;74938;42.658;23.248;2024-03-08T03:03:40;7.80;;;3.53;;
84713;SDS011;74938;42.658;23.248;2024-03-08T03:06:06;14.27;;;5.45;;
84713;SDS011;74938;42.658;23.248;2024-03-08T03:08:32;14.05;;;5.05;;
84713;SDS011;74938;42.658;23.248;2024-03-08T03:10:57;5.88;;;3.13;;
84713;SDS011;74938;42.658;23.248;2024-03-08T03:13:23;8.57;;;3.92;;
84713;SDS011;74938;42.658;23.248;2024-03-08T03:15:48;5.25;;;1.95;;
84713;SDS011;74938;42.658;23.248;2024-03-08T03:18:14;5.45;;;2.30;;
84713;SDS011;74938;42.658;23.248;2024-03-08T03:20:40;5.15;;;2.22;;
84713;SDS011;74938;42.658;23.248;2024-03-08T03:23:07;4.28;;;2.33;;
84713;SDS011;74938;42.658;23.248;2024-03-08T03:25:34;4.88;;;2.72;;
84713;SDS011;74938;42.658;23.248;2024-03-08T03:28:03;9.90;;;4.20;;
84713;SDS011;74938;42.658;23.248;2024-03-08T03:32:58;6.63;;;2.85;;
84713;SDS011;74938;42.658;23.248;2024-03-08T03:35:25;7.32;;;3.72;;
84713;SDS011;74938;42.658;23.248;2024-03-08T03:37:53;4.68;;;1.92;;
84713;SDS011;74938;42.658;23.248;2024-03-08T03:40:32;4.32;;;1.83;;
84713;SDS011;74938;42.658;23.248;2024-03-08T03:42:58;4.28;;;2.03;;
84713;SDS011;74938;42.658;23.248;2024-03-08T03:45:24;4.05;;;1.90;;
84713;SDS011;74938;42.658;23.248;2024-03-08T03:47:49;5.05;;;1.77;;
84713;SDS011;74938;42.658;23.248;2024-03-08T03:50:15;8.35;;;2.97;;
84713;SDS011;74938;42.658;23.248;2024-03-08T03:52:40;15.23;;;4.72;;
84713;SDS011;74938;42.658;23.248;2024-03-08T03:55:07;16.98;;;5.45;;
84713;SDS011;74938;42.658;23.248;2024-03-08T03:57:33;7.32;;;3.05;;
84713;SDS011;74938;42.658;23.248;2024-03-08T03:59:58;4.13;;;2.58;;
84713;SDS011;74938;42.658;23.248;2024-03-08T04:02:24;4.30;;;2.15;;
84713;SDS011;74938;42.658;23.248;2024-03-08T04:04:51;4.10;;;2.20;;
84713;SDS011;74938;42.658;23.248;2024-03-08T04:07:20;7.13;;;2.72;;
84713;SDS011;74938;42.658;23.248;2024-03-08T04:09:45;7.65;;;3.25;;
84713;SDS011;74938;42.658;23.248;2024-03-08T04:12:11;9.77;;;2.95;;
84713;SDS011;74938;42.658;23.248;2024-03-08T04:14:37;6.97;;;2.90;;
84713;SDS011;74938;42.658;23.248;2024-03-08T04:17:04;4.70;;;1.90;;
84713;SDS011;74938;42.658;23.248;2024-03-08T04:19:31;5.78;;;2.38;;
84713;SDS011;74938;42.658;23.248;2024-03-08T04:21:56;5.45;;;2.03;;
84713;SDS011;74938;42.658;23.248;2024-03-08T04:24:22;7.60;;;3.13;;
84713;SDS011;74938;42.658;23.248;2024-03-08T04:26:47;6.80;;;2.75;;
84713;SDS011;74938;42.658;23.248;2024-03-08T04:29:12;5.78;;;2.35;;
84713;SDS011;74938;42.658;23.248;2024-03-08T04:31:39;4.20;;;1.85;;
84713;SDS011;74938;42.658;23.248;2024-03-08T04:34:05;4.18;;;1.95;;
84713;SDS011;74938;42.658;23.248;2024-03-08T04:36:31;3.03;;;1.70;;
84713;SDS011;74938;42.658;23.248;2024-03-08T04:38:56;4.63;;;1.95;;
84713;SDS011;74938;42.658;23.248;2024-03-08T04:41:21;3.67;;;1.80;;
84713;SDS011;74938;42.658;23.248;2024-03-08T04:43:48;4.72;;;1.90;;
84713;SDS011;74938;42.658;23.248;2024-03-08T04:46:14;3.50;;;1.60;;
84713;SDS011;74938;42.658;23.248;2024-03-08T04:48:39;2.80;;;1.60;;
84713;SDS011;74938;42.658;23.248;2024-03-08T04:51:06;2.47;;;1.60;;
84713;SDS011;74938;42.658;23.248;2024-03-08T04:53:32;4.28;;;1.92;;
84713;SDS011;74938;42.658;23.248;2024-03-08T04:55:59;4.22;;;1.95;;
84713;SDS011;74938;42.658;23.248;2024-03-08T04:58:25;4.88;;;2.30;;
84713;SDS011;74938;42.658;23.248;2024-03-08T05:00:50;4.20;;;2.05;;
84713;SDS011;74938;42.658;23.248;2024-03-08T05:03:15;3.75;;;2.00;;
84713;SDS011;74938;42.658;23.248;2024-03-08T05:05:41;5.35;;;2.53;;
84713;SDS011;74938;42.658;23.248;2024-03-08T05:08:06;4.95;;;2.03;;
84713;SDS011;74938;42.658;23.248;2024-03-08T05:10:32;3.90;;;2.28;;
84713;SDS011;74938;42.658;23.248;2024-03-08T05:12:57;4.93;;;2.50;;
84713;SDS011;74938;42.658;23.248;2024-03-08T05:15:23;4.15;;;2.33;;
84713;SDS011;74938;42.658;23.248;2024-03-08T05:17:48;4.57;;;2.15;;
84713;SDS011;74938;42.658;23.248;2024-03-08T05:20:14;5.25;;;2.60;;
84713;SDS011;74938;42.658;23.248;2024-03-08T05:22:42;50.28;;;14.93;;
84713;SDS011;74938;42.658;23.248;2024-03-08T05:25:07;306.88;;;84.90;;
84713;SDS011;74938;42.658;23.248;2024-03-08T05:27:34;117.43;;;34.97;;
84713;SDS011;74938;42.658;23.248;2024-03-08T05:30:00;58.28;;;20.70;;
84713;SDS011;74938;42.658;23.248;2024-03-08T05:32:25;59.78;;;24.15;;
84713;SDS011;74938;42.658;23.248;2024-03-08T05:34:51;114.28;;;38.97;;
84713;SDS011;74938;42.658;23.248;2024-03-08T05:37:17;140.77;;;45.92;;
84713;SDS011;74938;42.658;23.248;2024-03-08T05:39:42;44.00;;;19.25;;
84713;SDS011;74938;42.658;23.248;2024-03-08T05:42:09;12.88;;;6.55;;
84713;SDS011;74938;42.658;23.248;2024-03-08T05:44:35;11.82;;;6.47;;
84713;SDS011;74938;42.658;23.248;2024-03-08T05:47:00;8.63;;;4.70;;
84713;SDS011;74938;42.658;23.248;2024-03-08T05:49:26;9.85;;;5.40;;
84713;SDS011;74938;42.658;23.248;2024-03-08T05:51:51;9.80;;;5.20;;
84713;SDS011;74938;42.658;23.248;2024-03-08T05:54:17;8.35;;;4.40;;
84713;SDS011;74938;42.658;23.248;2024-03-08T05:56:42;7.97;;;5.03;;
84713;SDS011;74938;42.658;23.248;2024-03-08T05:59:09;10.13;;;4.20;;
84713;SDS011;74938;42.658;23.248;2024-03-08T06:01:34;9.05;;;4.00;;
84713;SDS011;74938;42.658;23.248;2024-03-08T06:04:01;7.05;;;3.67;;
84713;SDS011;74938;42.658;23.248;2024-03-08T06:06:27;8.45;;;4.18;;
84713;SDS011;74938;42.658;23.248;2024-03-08T06:08:53;6.85;;;3.95;;
84713;SDS011;74938;42.658;23.248;2024-03-08T06:11:21;8.80;;;3.97;;
84713;SDS011;74938;42.658;23.248;2024-03-08T06:13:47;9.75;;;4.53;;
84713;SDS011;74938;42.658;23.248;2024-03-08T06:16:12;8.65;;;3.85;;
84713;SDS011;74938;42.658;23.248;2024-03-08T06:18:38;9.30;;;4.20;;
84713;SDS011;74938;42.658;23.248;2024-03-08T06:21:04;10.32;;;5.80;;
84713;SDS011;74938;42.658;23.248;2024-03-08T06:23:31;10.48;;;4.88;;
84713;SDS011;74938;42.658;23.248;2024-03-08T06:25:57;7.90;;;4.55;;
84713;SDS011;74938;42.658;23.248;2024-03-08T06:28:22;12.05;;;6.25;;
84713;SDS011;74938;42.658;23.248;2024-03-08T06:30:48;11.05;;;5.75;;
84713;SDS011;74938;42.658;23.248;2024-03-08T06:33:13;9.00;;;5.03;;
84713;SDS011;74938;42.658;23.248;2024-03-08T06:35:39;9.55;;;4.72;;
84713;SDS011;74938;42.658;23.248;2024-03-08T06:38:04;9.95;;;5.95;;
84713;SDS011;74938;42.658;23.248;2024-03-08T06:40:30;10.70;;;5.35;;
84713;SDS011;74938;42.658;23.248;2024-03-08T06:42:55;12.48;;;6.38;;
84713;SDS011;74938;42.658;23.248;2024-03-08T06:45:20;12.10;;;5.38;;
84713;SDS011;74938;42.658;23.248;2024-03-08T06:47:48;10.27;;;6.07;;
84713;SDS011;74938;42.658;23.248;2024-03-08T06:50:13;8.68;;;4.80;;
84713;SDS011;74938;42.658;23.248;2024-03-08T06:52:40;8.85;;;4.55;;
84713;SDS011;74938;42.658;23.248;2024-03-08T06:55:07;7.85;;;4.53;;
84713;SDS011;74938;42.658;23.248;2024-03-08T06:57:33;10.10;;;4.60;;
84713;SDS011;74938;42.658;23.248;2024-03-08T06:59:59;9.40;;;4.65;;
84713;SDS011;74938;42.658;23.248;2024-03-08T07:02:24;11.18;;;4.82;;
84713;SDS011;74938;42.658;23.248;2024-03-08T07:04:50;15.02;;;5.03;;
84713;SDS011;74938;42.658;23.248;2024-03-08T07:07:16;7.88;;;4.18;;
84713;SDS011;74938;42.658;23.248;2024-03-08T07:09:44;9.07;;;4.40;;
84713;SDS011;74938;42.658;23.248;2024-03-08T07:14:38;11.20;;;4.97;;
84713;SDS011;74938;42.658;23.248;2024-03-08T07:17:07;9.25;;;5.18;;
84713;SDS011;74938;42.658;23.248;2024-03-08T07:19:34;9.70;;;4.82;;
84713;SDS011;74938;42.658;23.248;2024-03-08T07:21:59;9.07;;;4.43;;
84713;SDS011;74938;42.658;23.248;2024-03-08T07:24:25;10.02;;;5.68;;
84713;SDS011;74938;42.658;23.248;2024-03-08T07:27:05;11.20;;;5.15;;
84713;SDS011;74938;42.658;23.248;2024-03-08T07:29:33;11.25;;;6.03;;
84713;SDS011;74938;42.658;23.248;2024-03-08T07:31:59;8.88;;;4.80;;
84713;SDS011;74938;42.658;23.248;2024-03-08T07:34:43;9.95;;;4.80;;
84713;SDS011;74938;42.658;23.248;2024-03-08T07:37:08;9.95;;;5.38;;
84713;SDS011;74938;42.658;23.248;2024-03-08T07:39:37;9.77;;;4.70;;
84713;SDS011;74938;42.658;23.248;2024-03-08T07:42:04;8.10;;;4.30;;
84713;SDS011;74938;42.658;23.248;2024-03-08T07:44:29;6.70;;;4.20;;
84713;SDS011;74938;42.658;23.248;2024-03-08T07:46:56;10.70;;;4.65;;
84713;SDS011;74938;42.658;23.248;2024-03-08T07:49:21;7.72;;;4.35;;
84713;SDS011;74938;42.658;23.248;2024-03-08T07:51:46;8.52;;;4.18;;
84713;SDS011;74938;42.658;23.248;2024-03-08T07:54:12;7.63;;;4.15;;
84713;SDS011;74938;42.658;23.248;2024-03-08T07:56:38;9.10;;;3.67;;
84713;SDS011;74938;42.658;23.248;2024-03-08T07:59:03;7.60;;;3.50;;
84713;SDS011;74938;42.658;23.248;2024-03-08T08:01:29;7.43;;;4.40;;
84713;SDS011;74938;42.658;23.248;2024-03-08T08:03:55;8.20;;;4.38;;
84713;SDS011;74938;42.658;23.248;2024-03-08T08:06:21;10.38;;;4.68;;
84713;SDS011;74938;42.658;23.248;2024-03-08T08:08:47;10.20;;;4.50;;
84713;SDS011;74938;42.658;23.248;2024-03-08T08:11:13;9.23;;;4.15;;
84713;SDS011;74938;42.658;23.248;2024-03-08T08:13:40;8.55;;;4.28;;
84713;SDS011;74938;42.658;23.248;2024-03-08T08:16:08;9.98;;;5.03;;
84713;SDS011;74938;42.658;23.248;2024-03-08T08:18:34;12.73;;;5.57;;
84713;SDS011;74938;42.658;23.248;2024-03-08T08:21:00;9.70;;;5.32;;
84713;SDS011;74938;42.658;23.248;2024-03-08T08:23:25;10.07;;;5.90;;
84713;SDS011;74938;42.658;23.248;2024-03-08T08:25:51;9.13;;;5.13;;
84713;SDS011;74938;42.658;23.248;2024-03-08T08:28:16;11.38;;;5.22;;
84713;SDS011;74938;42.658;23.248;2024-03-08T08:30:43;13.52;;;5.63;;
84713;SDS011;74938;42.658;23.248;2024-03-08T08:33:08;10.60;;;5.35;;
84713;SDS011;74938;42.658;23.248;2024-03-08T08:35:35;12.07;;;5.90;;
84713;SDS011;74938;42.658;23.248;2024-03-08T08:38:00;8.85;;;4.75;;
84713;SDS011;74938;42.658;23.248;2024-03-08T08:40:26;9.82;;;4.85;;
84713;SDS011;74938;42.658;23.248;2024-03-08T08:42:51;9.93;;;5.00;;
84713;SDS011;74938;42.658;23.248;2024-03-08T08:45:22;10.80;;;5.05;;
84713;SDS011;74938;42.658;23.248;2024-03-08T08:47:47;11.02;;;5.35;;
84713;SDS011;74938;42.658;23.248;2024-03-08T08:50:14;14.20;;;4.90;;
84713;SDS011;74938;42.658;23.248;2024-03-08T08:52:41;9.38;;;5.30;;
84713;SDS011;74938;42.658;23.248;2024-03-08T08:55:08;10.88;;;5.18;;
84713;SDS011;74938;42.658;23.248;2024-03-08T08:57:34;9.63;;;5.53;;
84713;SDS011;74938;42.658;23.248;2024-03-08T09:00:00;9.05;;;4.72;;
84713;SDS011;74938;42.658;23.248;2024-03-08T09:02:26;9.55;;;4.55;;
84713;SDS011;74938;42.658;23.248;2024-03-08T09:04:52;11.02;;;6.38;;
84713;SDS011;74938;42.658;23.248;2024-03-08T09:07:18;9.98;;;5.30;;
84713;SDS011;74938;42.658;23.248;2024-03-08T09:09:44;9.20;;;5.82;;
84713;SDS011;74938;42.658;23.248;2024-03-08T09:12:10;11.27;;;6.28;;
84713;SDS011;74938;42.658;23.248;2024-03-08T09:14:39;11.20;;;6.57;;
84713;SDS011;74938;42.658;23.248;2024-03-08T09:17:05;12.25;;;6.50;;
84713;SDS011;74938;42.658;23.248;2024-03-08T09:19:33;7.70;;;5.38;;
84713;SDS011;74938;42.658;23.248;2024-03-08T09:21:59;9.65;;;5.63;;
84713;SDS011;74938;42.658;23.248;2024-03-08T09:24:24;8.27;;;5.22;;
84713;SDS011;74938;42.658;23.248;2024-03-08T09:26:49;7.97;;;4.88;;
84713;SDS011;74938;42.658;23.248;2024-03-08T09:29:15;8.30;;;4.80;;
84713;SDS011;74938;42.658;23.248;2024-03-08T09:31:41;8.02;;;4.97;;
84713;SDS011;74938;42.658;23.248;2024-03-08T09:34:06;9.32;;;4.90;;
84713;SDS011;74938;42.658;23.248;2024-03-08T09:36:33;10.00;;;4.43;;
84713;SDS011;74938;42.658;23.248;2024-03-08T09:38:58;9.15;;;4.15;;
84713;SDS011;74938;42.658;23.248;2024-03-08T09:41:25;8.63;;;4.47;;
84713;SDS011;74938;42.658;23.248;2024-03-08T09:43:51;6.95;;;4.13;;
84713;SDS011;74938;42.658;23.248;2024-03-08T09:46:16;6.63;;;3.97;;
84713;SDS011;74938;42.658;23.248;2024-03-08T09:48:45;6.22;;;3.95;;
84713;SDS011;74938;42.658;23.248;2024-03-08T09:51:11;6.72;;;3.53;;
84713;SDS011;74938;42.658;23.248;2024-03-08T09:53:40;6.50;;;3.50;;
84713;SDS011;74938;42.658;23.248;2024-03-08T09:56:07;6.20;;;3.58;;
84713;SDS011;74938;42.658;23.248;2024-03-08T09:58:33;5.80;;;3.53;;
84713;SDS011;74938;42.658;23.248;2024-03-08T10:00:58;7.72;;;3.85;;
84713;SDS011;74938;42.658;23.248;2024-03-08T10:03:27;6.85;;;3.72;;
84713;SDS011;74938;42.658;23.248;2024-03-08T10:05:53;8.70;;;3.60;;
84713;SDS011;74938;42.658;23.248;2024-03-08T10:08:21;10.68;;;4.30;;
84713;SDS011;74938;42.658;23.248;2024-03-08T10:10:46;8.20;;;3.28;;
84713;SDS011;74938;42.658;23.248;2024-03-08T10:13:12;5.72;;;3.35;;
84713;SDS011;74938;42.658;23.248;2024-03-08T10:15:39;6.72;;;3.83;;
84713;SDS011;74938;42.658;23.248;2024-03-08T10:18:05;6.78;;;3.80;;
84713;SDS011;74938;42.658;23.248;2024-03-08T10:20:31;5.60;;;3.20;;
84713;SDS011;74938;42.658;23.248;2024-03-08T10:22:59;6.15;;;3.33;;
84713;SDS011;74938;42.658;23.248;2024-03-08T10:25:25;7.82;;;3.33;;
84713;SDS011;74938;42.658;23.248;2024-03-08T10:27:51;5.45;;;3.17;;
84713;SDS011;74938;42.658;23.248;2024-03-08T10:30:17;8.43;;;3.70;;
84713;SDS011;74938;42.658;23.248;2024-03-08T10:32:46;7.78;;;4.05;;
84713;SDS011;74938;42.658;23.248;2024-03-08T10:35:12;6.30;;;3.83;;
84713;SDS011;74938;42.658;23.248;2024-03-08T10:37:45;7.45;;;4.13;;
84713;SDS011;74938;42.658;23.248;2024-03-08T10:40:17;6.88;;;4.28;;
84713;SDS011;74938;42.658;23.248;2024-03-08T10:45:30;5.93;;;3.67;;
84713;SDS011;74938;42.658;23.248;2024-03-08T10:50:35;6.97;;;3.28;;
84713;SDS011;74938;42.658;23.248;2024-03-08T10:53:01;5.07;;;2.92;;
84713;SDS011;74938;42.658;23.248;2024-03-08T10:55:31;5.82;;;2.92;;
84713;SDS011;74938;42.658;23.248;2024-03-08T10:57:58;4.95;;;3.28;;
84713;SDS011;74938;42.658;23.248;2024-03-08T11:00:25;3.95;;;2.35;;
84713;SDS011;74938;42.658;23.248;2024-03-08T11:02:52;5.95;;;3.33;;
84713;SDS011;74938;42.658;23.248;2024-03-08T11:08:17;5.10;;;2.80;;
84713;SDS011;74938;42.658;23.248;2024-03-08T11:10:49;5.50;;;2.75;;
84713;SDS011;74938;42.658;23.248;2024-03-08T11:13:33;6.03;;;2.78;;
84713;SDS011;74938;42.658;23.248;2024-03-08T11:16:11;6.22;;;2.75;;
84713;SDS011;74938;42.658;23.248;2024-03-08T11:18:37;4.75;;;2.40;;
84713;SDS011;74938;42.658;23.248;2024-03-08T11:21:03;5.65;;;3.00;;
84713;SDS011;74938;42.658;23.248;2024-03-08T11:23:37;10.57;;;3.47;;
84713;SDS011;74938;42.658;23.248;2024-03-08T11:26:02;6.25;;;3.08;;
84713;SDS011;74938;42.658;23.248;2024-03-08T11:28:32;4.25;;;2.78;;
84713;SDS011;74938;42.658;23.248;2024-03-08T11:33:26;4.05;;;2.40;;
84713;SDS011;74938;42.658;23.248;2024-03-08T11:36:02;4.00;;;2.30;;
84713;SDS011;74938;42.658;23.248;2024-03-08T11:38:39;3.90;;;2.28;;
84713;SDS011;74938;42.658;23.248;2024-03-08T11:41:05;5.20;;;2.58;;
84713;SDS011;74938;42.658;23.248;2024-03-08T11:43:31;4.20;;;2.33;;
84713;SDS011;74938;42.658;23.248;2024-03-08T11:46:09;6.05;;;3.13;;
84713;SDS011;74938;42.658;23.248;2024-03-08T11:48:35;5.15;;;2.70;;
84713;SDS011;74938;42.658;23.248;2024-03-08T11:51:01;17.25;;;4.43;;
84713;SDS011;74938;42.658;23.248;2024-03-08T11:53:28;3.63;;;1.90;;
84713;SDS011;74938;42.658;23.248;2024-03-08T11:55:53;5.43;;;2.40;;
84713;SDS011;74938;42.658;23.248;2024-03-08T11:58:19;4.97;;;2.30;;
84713;SDS011;74938;42.658;23.248;2024-03-08T12:00:44;4.10;;;2.25;;
84713;SDS011;74938;42.658;23.248;2024-03-08T12:03:11;5.35;;;2.85;;
84713;SDS011;74938;42.658;23.248;2024-03-08T12:05:37;8.63;;;3.40;;
84713;SDS011;74938;42.658;23.248;2024-03-08T12:08:03;6.90;;;3.95;;
84713;SDS011;74938;42.658;23.248;2024-03-08T12:12:58;4.95;;;2.63;;
84713;SDS011;74938;42.658;23.248;2024-03-08T12:15:28;4.60;;;2.33;;
84713;SDS011;74938;42.658;23.248;2024-03-08T12:17:54;4.32;;;2.17;;
84713;SDS011;74938;42.658;23.248;2024-03-08T12:20:24;5.43;;;2.67;;
84713;SDS011;74938;42.658;23.248;2024-03-08T12:22:51;4.60;;;2.10;;
84713;SDS011;74938;42.658;23.248;2024-03-08T12:25:18;4.45;;;1.70;;
84713;SDS011;74938;42.658;23.248;2024-03-08T12:27:45;4.72;;;2.67;;
84713;SDS011;74938;42.658;23.248;2024-03-08T12:30:21;3.83;;;2.42;;
84713;SDS011;74938;42.658;23.248;2024-03-08T12:32:57;7.63;;;2.40;;
84713;SDS011;74938;42.658;23.248;2024-03-08T12:35:28;5.00;;;2.03;;
84713;SDS011;74938;42.658;23.248;2024-03-08T12:37:56;5.85;;;3.38;;
84713;SDS011;74938;42.658;23.248;2024-03-08T12:40:40;6.80;;;2.28;;
84713;SDS011;74938;42.658;23.248;2024-03-08T12:43:07;4.50;;;2.05;;
84713;SDS011;74938;42.658;23.248;2024-03-08T12:45:32;3.20;;;2.00;;
84713;SDS011;74938;42.658;23.248;2024-03-08T12:47:58;3.28;;;1.92;;
84713;SDS011;74938;42.658;23.248;2024-03-08T12:50:24;4.18;;;1.85;;
84713;SDS011;74938;42.658;23.248;2024-03-08T12:52:50;3.92;;;2.30;;
84713;SDS011;74938;42.658;23.248;2024-03-08T12:55:15;6.57;;;3.20;;
84713;SDS011;74938;42.658;23.248;2024-03-08T12:57:41;4.70;;;1.80;;
84713;SDS011;74938;42.658;23.248;2024-03-08T13:00:07;5.13;;;2.40;;
84713;SDS011;74938;42.658;23.248;2024-03-08T13:02:38;5.85;;;2.35;;
84713;SDS011;74938;42.658;23.248;2024-03-08T13:05:04;3.42;;;1.98;;
84713;SDS011;74938;42.658;23.248;2024-03-08T13:07:30;4.28;;;2.10;;
84713;SDS011;74938;42.658;23.248;2024-03-08T13:09:56;3.72;;;2.15;;
84713;SDS011;74938;42.658;23.248;2024-03-08T13:12:24;4.47;;;2.20;;
84713;SDS011;74938;42.658;23.248;2024-03-08T13:14:50;4.82;;;1.90;;
84713;SDS011;74938;42.658;23.248;2024-03-08T13:17:16;4.82;;;2.45;;
84713;SDS011;74938;42.658;23.248;2024-03-08T13:19:43;4.13;;;2.15;;
84713;SDS011;74938;42.658;23.248;2024-03-08T13:22:11;3.78;;;2.38;;
84713;SDS011;74938;42.658;23.248;2024-03-08T13:24:42;8.52;;;2.70;;
84713;SDS011;74938;42.658;23.248;2024-03-08T13:27:08;5.53;;;2.53;;
84713;SDS011;74938;42.658;23.248;2024-03-08T13:29:47;3.72;;;1.92;;
84713;SDS011;74938;42.658;23.248;2024-03-08T13:32:13;5.55;;;2.42;;
84713;SDS011;74938;42.658;23.248;2024-03-08T13:37:08;3.60;;;2.15;;
84713;SDS011;74938;42.658;23.248;2024-03-08T13:39:35;4.43;;;1.90;;
84713;SDS011;74938;42.658;23.248;2024-03-08T13:42:15;4.82;;;2.10;;
84713;SDS011;74938;42.658;23.248;2024-03-08T13:44:47;4.47;;;2.40;;
84713;SDS011;74938;42.658;23.248;2024-03-08T13:47:16;4.30;;;2.17;;
84713;SDS011;74938;42.658;23.248;2024-03-08T13:49:43;3.72;;;2.13;;
84713;SDS011;74938;42.658;23.248;2024-03-08T13:52:09;3.65;;;2.10;;
84713;SDS011;74938;42.658;23.248;2024-03-08T13:54:35;3.28;;;2.10;;
84713;SDS011;74938;42.658;23.248;2024-03-08T13:57:01;4.85;;;2.13;;
84713;SDS011;74938;42.658;23.248;2024-03-08T13:59:29;2.92;;;1.90;;
84713;SDS011;74938;42.658;23.248;2024-03-08T14:01:55;3.75;;;2.10;;
84713;SDS011;74938;42.658;23.248;2024-03-08T14:04:22;4.53;;;1.98;;
84713;SDS011;74938;42.658;23.248;2024-03-08T14:06:47;4.32;;;2.42;;
84713;SDS011;74938;42.658;23.248;2024-03-08T14:09:14;4.45;;;2.50;;
84713;SDS011;74938;42.658;23.248;2024-03-08T14:11:45;3.47;;;2.03;;
84713;SDS011;74938;42.658;23.248;2024-03-08T14:14:11;4.10;;;2.17;;
84713;SDS011;74938;42.658;23.248;2024-03-08T14:16:38;5.97;;;3.13;;
84713;SDS011;74938;42.658;23.248;2024-03-08T14:19:04;6.70;;;2.67;;
84713;SDS011;74938;42.658;23.248;2024-03-08T14:21:30;8.32;;;2.55;;
84713;SDS011;74938;42.658;23.248;2024-03-08T14:23:58;6.20;;;2.75;;
84713;SDS011;74938;42.658;23.248;2024-03-08T14:26:24;2.78;;;1.70;;
84713;SDS011;74938;42.658;23.248;2024-03-08T14:28:49;3.30;;;1.83;;
84713;SDS011;74938;42.658;23.248;2024-03-08T14:31:19;5.97;;;3.15;;
84713;SDS011;74938;42.658;23.248;2024-03-08T14:33:45;3.03;;;1.83;;
84713;SDS011;74938;42.658;23.248;2024-03-08T14:36:14;8.85;;;2.70;;
84713;SDS011;74938;42.658;23.248;2024-03-08T14:38:42;6.55;;;2.95;;
84713;SDS011;74938;42.658;23.248;2024-03-08T14:41:07;3.65;;;2.13;;
84713;SDS011;74938;42.658;23.248;2024-03-08T14:43:33;6.40;;;3.50;;
84713;SDS011;74938;42.658;23.248;2024-03-08T14:45:58;7.85;;;3.50;;
84713;SDS011;74938;42.658;23.248;2024-03-08T14:48:24;13.68;;;7.15;;